sensor_id;sensor_type;location;lat;lon;timestamp;pressure;altitude;pressure_sealevel;temperature;humidity
33845;BME280;20145;43.118;25.694;2023-08-21T00:00:49;99566.63;;;23.76;64.23
33845;BME280;20145;43.118;25.694;2023-08-21T00:03:14;99572.19;;;23.71;65.10
33845;BME280;20145;43.118;25.694;2023-08-21T00:05:40;99579.72;;;23.63;63.97
33845;BME280;20145;43.118;25.694;2023-08-21T00:08:06;99576.72;;;23.55;65.45
33845;BME280;20145;43.118;25.694;2023-08-21T00:10:32;99577.84;;;23.51;66.49
33845;BME280;20145;43.118;25.694;2023-08-21T00:12:58;99585.66;;;23.52;66.30
33845;BME280;20145;43.118;25.694;2023-08-21T00:15:24;99587.00;;;23.45;66.63
33845;BME280;20145;43.118;25.694;2023-08-21T00:17:49;99583.34;;;23.33;64.87
33845;BME280;20145;43.118;25.694;2023-08-21T00:20:15;99595.00;;;23.29;65.82
33845;BME280;20145;43.118;25.694;2023-08-21T00:22:40;99593.84;;;23.19;67.15
33845;BME280;20145;43.118;25.694;2023-08-21T00:25:06;99592.16;;;23.18;67.65
33845;BME280;20145;43.118;25.694;2023-08-21T00:27:32;99590.56;;;23.15;67.56
33845;BME280;20145;43.118;25.694;2023-08-21T00:30:00;99587.94;;;23.15;67.19
33845;BME280;20145;43.118;25.694;2023-08-21T00:32:25;99601.28;;;23.12;67.30
33845;BME280;20145;43.118;25.694;2023-08-21T00:34:51;99592.44;;;22.99;68.36
33845;BME280;20145;43.118;25.694;2023-08-21T00:37:17;99605.50;;;23.01;68.14
33845;BME280;20145;43.118;25.694;2023-08-21T00:39:42;99596.94;;;22.97;67.69
33845;BME280;20145;43.118;25.694;2023-08-21T00:42:08;99606.69;;;22.95;68.28
33845;BME280;20145;43.118;25.694;2023-08-21T00:44:34;99620.19;;;22.89;68.17
33845;BME280;20145;43.118;25.694;2023-08-21T00:47:00;99613.19;;;22.89;68.79
33845;BME280;20145;43.118;25.694;2023-08-21T00:49:26;99623.53;;;22.92;68.62
33845;BME280;20145;43.118;25.694;2023-08-21T00:51:53;99609.69;;;22.89;68.97
33845;BME280;20145;43.118;25.694;2023-08-21T00:54:19;99608.94;;;22.87;68.73
33845;BME280;20145;43.118;25.694;2023-08-21T00:56:45;99600.72;;;22.77;68.99
33845;BME280;20145;43.118;25.694;2023-08-21T00:59:12;99601.88;;;22.73;69.71
33845;BME280;20145;43.118;25.694;2023-08-21T01:01:38;99595.47;;;22.77;68.82
33845;BME280;20145;43.118;25.694;2023-08-21T01:04:03;99589.38;;;22.77;68.79
33845;BME280;20145;43.118;25.694;2023-08-21T01:06:29;99602.59;;;22.75;69.10
33845;BME280;20145;43.118;25.694;2023-08-21T01:09:02;99607.97;;;22.74;68.71
33845;BME280;20145;43.118;25.694;2023-08-21T01:11:39;99603.91;;;22.68;68.84
33845;BME280;20145;43.118;25.694;2023-08-21T01:14:36;99605.03;;;22.64;69.58
33845;BME280;20145;43.118;25.694;2023-08-21T01:17:09;99606.34;;;22.57;69.38
33845;BME280;20145;43.118;25.694;2023-08-21T01:19:42;99597.78;;;22.53;70.32
33845;BME280;20145;43.118;25.694;2023-08-21T01:22:09;99607.53;;;22.51;69.28
33845;BME280;20145;43.118;25.694;2023-08-21T01:24:34;99595.97;;;22.39;70.26
33845;BME280;20145;43.118;25.694;2023-08-21T01:27:00;99602.91;;;22.40;70.86
33845;BME280;20145;43.118;25.694;2023-08-21T01:29:27;99603.25;;;22.34;69.95
33845;BME280;20145;43.118;25.694;2023-08-21T01:34:41;99601.03;;;22.42;70.40
33845;BME280;20145;43.118;25.694;2023-08-21T01:37:08;99601.28;;;22.38;70.16
33845;BME280;20145;43.118;25.694;2023-08-21T01:39:34;99601.94;;;22.41;70.55
33845;BME280;20145;43.118;25.694;2023-08-21T01:41:59;99595.38;;;22.34;70.41
33845;BME280;20145;43.118;25.694;2023-08-21T01:44:25;99595.25;;;22.36;70.81
33845;BME280;20145;43.118;25.694;2023-08-21T01:46:53;99592.81;;;22.33;70.66
33845;BME280;20145;43.118;25.694;2023-08-21T01:49:18;99596.88;;;22.38;70.87
33845;BME280;20145;43.118;25.694;2023-08-21T01:51:45;99583.28;;;22.46;70.39
33845;BME280;20145;43.118;25.694;2023-08-21T01:54:11;99583.75;;;22.53;69.61
33845;BME280;20145;43.118;25.694;2023-08-21T01:56:36;99592.22;;;22.58;68.57
33845;BME280;20145;43.118;25.694;2023-08-21T01:59:03;99600.50;;;22.52;66.86
33845;BME280;20145;43.118;25.694;2023-08-21T02:01:29;99599.47;;;22.54;67.52
33845;BME280;20145;43.118;25.694;2023-08-21T02:03:55;99598.16;;;22.61;68.63
33845;BME280;20145;43.118;25.694;2023-08-21T02:06:20;99606.16;;;22.60;69.07
33845;BME280;20145;43.118;25.694;2023-08-21T02:08:46;99609.03;;;22.55;67.96
33845;BME280;20145;43.118;25.694;2023-08-21T02:11:11;99599.00;;;22.47;69.94
33845;BME280;20145;43.118;25.694;2023-08-21T02:13:37;99603.78;;;22.55;69.25
33845;BME280;20145;43.118;25.694;2023-08-21T02:16:02;99604.91;;;22.51;70.16
33845;BME280;20145;43.118;25.694;2023-08-21T02:18:28;99607.44;;;22.53;69.79
33845;BME280;20145;43.118;25.694;2023-08-21T02:20:54;99605.75;;;22.52;69.96
33845;BME280;20145;43.118;25.694;2023-08-21T02:23:20;99606.19;;;22.44;70.24
33845;BME280;20145;43.118;25.694;2023-08-21T02:25:45;99618.41;;;22.45;70.47
33845;BME280;20145;43.118;25.694;2023-08-21T02:28:11;99605.13;;;22.32;69.81
33845;BME280;20145;43.118;25.694;2023-08-21T02:30:40;99616.72;;;22.28;71.35
33845;BME280;20145;43.118;25.694;2023-08-21T02:33:06;99609.19;;;22.22;70.99
33845;BME280;20145;43.118;25.694;2023-08-21T02:35:31;99611.56;;;22.26;70.90
33845;BME280;20145;43.118;25.694;2023-08-21T02:37:57;99613.63;;;22.21;70.15
33845;BME280;20145;43.118;25.694;2023-08-21T02:40:22;99618.59;;;22.10;70.84
33845;BME280;20145;43.118;25.694;2023-08-21T02:42:48;99623.25;;;22.05;71.59
33845;BME280;20145;43.118;25.694;2023-08-21T02:45:13;99616.16;;;21.91;71.82
33845;BME280;20145;43.118;25.694;2023-08-21T02:47:40;99628.78;;;22.00;72.31
33845;BME280;20145;43.118;25.694;2023-08-21T02:50:07;99621.06;;;21.97;72.15
33845;BME280;20145;43.118;25.694;2023-08-21T02:52:33;99626.84;;;22.04;72.83
33845;BME280;20145;43.118;25.694;2023-08-21T02:54:59;99624.97;;;22.06;71.98
33845;BME280;20145;43.118;25.694;2023-08-21T02:57:26;99619.78;;;21.89;71.25
33845;BME280;20145;43.118;25.694;2023-08-21T02:59:52;99634.72;;;21.88;71.89
33845;BME280;20145;43.118;25.694;2023-08-21T03:02:18;99638.78;;;21.94;71.96
33845;BME280;20145;43.118;25.694;2023-08-21T03:04:44;99635.13;;;21.96;72.96
33845;BME280;20145;43.118;25.694;2023-08-21T03:07:10;99629.72;;;21.99;72.59
33845;BME280;20145;43.118;25.694;2023-08-21T03:09:39;99638.72;;;21.95;72.99
33845;BME280;20145;43.118;25.694;2023-08-21T03:12:05;99637.50;;;21.85;72.27
33845;BME280;20145;43.118;25.694;2023-08-21T03:14:31;99655.63;;;21.74;73.54
33845;BME280;20145;43.118;25.694;2023-08-21T03:16:56;99643.59;;;21.70;72.91
33845;BME280;20145;43.118;25.694;2023-08-21T03:19:22;99648.09;;;21.68;73.42
33845;BME280;20145;43.118;25.694;2023-08-21T03:21:47;99620.97;;;21.51;73.60
33845;BME280;20145;43.118;25.694;2023-08-21T03:24:13;99639.22;;;21.70;73.96
33845;BME280;20145;43.118;25.694;2023-08-21T03:26:38;99653.94;;;21.73;73.61
33845;BME280;20145;43.118;25.694;2023-08-21T03:29:04;99652.06;;;21.75;73.89
33845;BME280;20145;43.118;25.694;2023-08-21T03:31:30;99640.66;;;21.76;73.37
33845;BME280;20145;43.118;25.694;2023-08-21T03:33:56;99652.91;;;21.75;73.80
33845;BME280;20145;43.118;25.694;2023-08-21T03:36:22;99651.16;;;21.76;73.05
33845;BME280;20145;43.118;25.694;2023-08-21T03:38:59;99649.78;;;21.69;72.30
33845;BME280;20145;43.118;25.694;2023-08-21T03:41:26;99645.53;;;21.66;73.54
33845;BME280;20145;43.118;25.694;2023-08-21T03:43:52;99635.78;;;21.52;74.23
33845;BME280;20145;43.118;25.694;2023-08-21T03:46:17;99642.13;;;21.64;74.27
33845;BME280;20145;43.118;25.694;2023-08-21T03:48:43;99641.06;;;21.68;73.70
33845;BME280;20145;43.118;25.694;2023-08-21T03:51:08;99642.56;;;21.72;74.41
33845;BME280;20145;43.118;25.694;2023-08-21T03:53:34;99643.09;;;21.79;76.78
33845;BME280;20145;43.118;25.694;2023-08-21T03:56:00;99646.56;;;21.79;74.63
33845;BME280;20145;43.118;25.694;2023-08-21T03:58:25;99651.50;;;21.86;74.73
33845;BME280;20145;43.118;25.694;2023-08-21T04:00:52;99654.38;;;21.97;73.52
33845;BME280;20145;43.118;25.694;2023-08-21T04:03:18;99657.84;;;22.13;73.05
33845;BME280;20145;43.118;25.694;2023-08-21T04:05:44;99656.50;;;22.22;72.71
33845;BME280;20145;43.118;25.694;2023-08-21T04:08:09;99669.91;;;22.33;71.82
33845;BME280;20145;43.118;25.694;2023-08-21T04:10:35;99671.09;;;22.43;71.41
33845;BME280;20145;43.118;25.694;2023-08-21T04:13:01;99670.88;;;22.62;70.91
33845;BME280;20145;43.118;25.694;2023-08-21T04:15:26;99671.69;;;22.79;70.93
33845;BME280;20145;43.118;25.694;2023-08-21T04:17:52;99660.53;;;22.89;69.98
33845;BME280;20145;43.118;25.694;2023-08-21T04:20:19;99663.13;;;23.05;69.68
33845;BME280;20145;43.118;25.694;2023-08-21T04:22:46;99665.50;;;23.24;68.92
33845;BME280;20145;43.118;25.694;2023-08-21T04:25:11;99666.28;;;23.41;69.86
33845;BME280;20145;43.118;25.694;2023-08-21T04:27:37;99650.94;;;23.47;69.42
33845;BME280;20145;43.118;25.694;2023-08-21T04:30:03;99667.69;;;23.75;70.41
33845;BME280;20145;43.118;25.694;2023-08-21T04:32:30;99660.72;;;23.88;69.07
33845;BME280;20145;43.118;25.694;2023-08-21T04:34:56;99669.91;;;24.10;67.86
33845;BME280;20145;43.118;25.694;2023-08-21T04:37:22;99663.47;;;24.28;67.93
33845;BME280;20145;43.118;25.694;2023-08-21T04:39:52;99678.03;;;24.48;67.25
33845;BME280;20145;43.118;25.694;2023-08-21T04:42:18;99671.84;;;24.62;67.11
33845;BME280;20145;43.118;25.694;2023-08-21T04:44:43;99666.28;;;24.79;66.57
33845;BME280;20145;43.118;25.694;2023-08-21T04:47:25;99666.09;;;24.95;65.05
33845;BME280;20145;43.118;25.694;2023-08-21T04:49:52;99672.59;;;25.17;64.44
33845;BME280;20145;43.118;25.694;2023-08-21T04:52:18;99676.94;;;25.30;64.68
33845;BME280;20145;43.118;25.694;2023-08-21T04:54:43;99678.28;;;25.49;63.28
33845;BME280;20145;43.118;25.694;2023-08-21T04:57:09;99680.50;;;25.68;63.45
33845;BME280;20145;43.118;25.694;2023-08-21T04:59:35;99676.88;;;25.81;63.75
33845;BME280;20145;43.118;25.694;2023-08-21T05:02:01;99686.41;;;25.97;63.25
33845;BME280;20145;43.118;25.694;2023-08-21T05:04:26;99686.91;;;26.02;60.28
33845;BME280;20145;43.118;25.694;2023-08-21T05:06:52;99690.59;;;25.99;59.13
33845;BME280;20145;43.118;25.694;2023-08-21T05:09:17;99681.13;;;25.97;58.47
33845;BME280;20145;43.118;25.694;2023-08-21T05:11:43;99692.19;;;26.02;58.55
33845;BME280;20145;43.118;25.694;2023-08-21T05:14:10;99697.16;;;26.07;58.68
33845;BME280;20145;43.118;25.694;2023-08-21T05:16:36;99684.13;;;26.16;58.89
33845;BME280;20145;43.118;25.694;2023-08-21T05:19:01;99688.06;;;26.11;57.04
33845;BME280;20145;43.118;25.694;2023-08-21T05:21:27;99707.59;;;26.21;57.36
33845;BME280;20145;43.118;25.694;2023-08-21T05:23:53;99702.19;;;26.22;56.57
33845;BME280;20145;43.118;25.694;2023-08-21T05:26:19;99707.34;;;26.24;56.66
33845;BME280;20145;43.118;25.694;2023-08-21T05:28:45;99701.28;;;26.35;55.99
33845;BME280;20145;43.118;25.694;2023-08-21T05:31:11;99704.50;;;26.27;55.88
33845;BME280;20145;43.118;25.694;2023-08-21T05:33:37;99702.88;;;26.37;55.98
33845;BME280;20145;43.118;25.694;2023-08-21T05:36:02;99702.03;;;26.37;57.51
33845;BME280;20145;43.118;25.694;2023-08-21T05:38:28;99708.22;;;26.48;58.07
33845;BME280;20145;43.118;25.694;2023-08-21T05:40:53;99703.09;;;26.34;55.13
33845;BME280;20145;43.118;25.694;2023-08-21T05:43:19;99709.00;;;26.51;55.01
33845;BME280;20145;43.118;25.694;2023-08-21T05:45:45;99711.78;;;26.60;55.47
33845;BME280;20145;43.118;25.694;2023-08-21T05:48:11;99708.25;;;26.73;56.37
33845;BME280;20145;43.118;25.694;2023-08-21T05:50:36;99710.28;;;26.69;55.61
33845;BME280;20145;43.118;25.694;2023-08-21T05:53:05;99711.31;;;26.55;54.89
33845;BME280;20145;43.118;25.694;2023-08-21T05:55:32;99711.84;;;26.47;55.89
33845;BME280;20145;43.118;25.694;2023-08-21T05:57:58;99722.97;;;26.53;55.44
33845;BME280;20145;43.118;25.694;2023-08-21T06:00:42;99721.31;;;26.63;55.69
33845;BME280;20145;43.118;25.694;2023-08-21T06:03:10;99718.34;;;26.67;55.21
33845;BME280;20145;43.118;25.694;2023-08-21T06:05:35;99718.50;;;26.77;55.81
33845;BME280;20145;43.118;25.694;2023-08-21T06:08:01;99714.59;;;26.94;55.86
33845;BME280;20145;43.118;25.694;2023-08-21T06:10:27;99714.25;;;27.10;54.97
33845;BME280;20145;43.118;25.694;2023-08-21T06:12:52;99718.78;;;27.21;54.11
33845;BME280;20145;43.118;25.694;2023-08-21T06:15:18;99727.13;;;27.27;54.09
33845;BME280;20145;43.118;25.694;2023-08-21T06:17:44;99721.22;;;27.35;54.72
33845;BME280;20145;43.118;25.694;2023-08-21T06:20:09;99710.28;;;27.40;54.52
33845;BME280;20145;43.118;25.694;2023-08-21T06:22:35;99722.81;;;27.49;54.73
33845;BME280;20145;43.118;25.694;2023-08-21T06:25:01;99718.22;;;27.51;52.92
33845;BME280;20145;43.118;25.694;2023-08-21T06:27:27;99721.63;;;27.75;52.69
33845;BME280;20145;43.118;25.694;2023-08-21T06:29:53;99725.28;;;27.97;53.58
33845;BME280;20145;43.118;25.694;2023-08-21T06:32:18;99723.69;;;28.06;52.29
33845;BME280;20145;43.118;25.694;2023-08-21T06:34:44;99725.59;;;28.15;51.44
33845;BME280;20145;43.118;25.694;2023-08-21T06:37:09;99725.00;;;28.22;51.64
33845;BME280;20145;43.118;25.694;2023-08-21T06:39:35;99722.81;;;28.28;51.86
33845;BME280;20145;43.118;25.694;2023-08-21T06:42:01;99725.94;;;28.33;52.05
33845;BME280;20145;43.118;25.694;2023-08-21T06:44:26;99732.94;;;28.45;51.29
33845;BME280;20145;43.118;25.694;2023-08-21T06:46:52;99735.22;;;28.50;51.24
33845;BME280;20145;43.118;25.694;2023-08-21T06:49:18;99727.94;;;28.52;51.15
33845;BME280;20145;43.118;25.694;2023-08-21T06:51:43;99739.66;;;28.60;51.04
33845;BME280;20145;43.118;25.694;2023-08-21T06:54:09;99735.03;;;28.62;51.38
33845;BME280;20145;43.118;25.694;2023-08-21T06:56:34;99737.44;;;28.65;51.11
33845;BME280;20145;43.118;25.694;2023-08-21T06:59:00;99728.38;;;28.68;51.69
33845;BME280;20145;43.118;25.694;2023-08-21T07:01:27;99730.31;;;28.77;50.84
33845;BME280;20145;43.118;25.694;2023-08-21T07:03:53;99731.19;;;28.87;51.27
33845;BME280;20145;43.118;25.694;2023-08-21T07:06:19;99736.22;;;29.02;49.21
33845;BME280;20145;43.118;25.694;2023-08-21T07:08:44;99731.66;;;29.04;49.24
33845;BME280;20145;43.118;25.694;2023-08-21T07:11:10;99734.84;;;29.19;48.82
33845;BME280;20145;43.118;25.694;2023-08-21T07:13:37;99725.88;;;29.20;46.98
33845;BME280;20145;43.118;25.694;2023-08-21T07:16:03;99744.38;;;29.21;47.44
33845;BME280;20145;43.118;25.694;2023-08-21T07:18:32;99740.53;;;29.35;47.09
33845;BME280;20145;43.118;25.694;2023-08-21T07:20:58;99740.97;;;29.40;46.52
33845;BME280;20145;43.118;25.694;2023-08-21T07:23:24;99731.44;;;29.38;46.73
33845;BME280;20145;43.118;25.694;2023-08-21T07:25:49;99735.72;;;29.50;46.77
33845;BME280;20145;43.118;25.694;2023-08-21T07:28:15;99733.25;;;29.58;46.84
33845;BME280;20145;43.118;25.694;2023-08-21T07:30:40;99734.28;;;29.46;45.61
33845;BME280;20145;43.118;25.694;2023-08-21T07:33:06;99745.06;;;29.44;43.76
33845;BME280;20145;43.118;25.694;2023-08-21T07:35:32;99734.38;;;29.34;45.12
33845;BME280;20145;43.118;25.694;2023-08-21T07:37:58;99738.09;;;29.43;44.71
33845;BME280;20145;43.118;25.694;2023-08-21T07:40:24;99726.69;;;29.62;43.52
33845;BME280;20145;43.118;25.694;2023-08-21T07:42:49;99727.72;;;29.71;41.86
33845;BME280;20145;43.118;25.694;2023-08-21T07:45:16;99726.09;;;29.79;43.07
33845;BME280;20145;43.118;25.694;2023-08-21T07:47:41;99725.66;;;29.74;42.52
33845;BME280;20145;43.118;25.694;2023-08-21T07:50:08;99727.94;;;29.89;43.34
33845;BME280;20145;43.118;25.694;2023-08-21T07:52:34;99728.56;;;30.02;43.15
33845;BME280;20145;43.118;25.694;2023-08-21T07:55:00;99722.56;;;30.10;43.63
33845;BME280;20145;43.118;25.694;2023-08-21T07:57:27;99728.03;;;30.08;43.88
33845;BME280;20145;43.118;25.694;2023-08-21T07:59:53;99727.19;;;30.17;43.50
33845;BME280;20145;43.118;25.694;2023-08-21T08:02:19;99729.94;;;30.27;44.51
33845;BME280;20145;43.118;25.694;2023-08-21T08:04:45;99724.03;;;30.33;42.26
33845;BME280;20145;43.118;25.694;2023-08-21T08:07:11;99723.78;;;30.46;42.79
33845;BME280;20145;43.118;25.694;2023-08-21T08:09:37;99725.22;;;30.60;42.58
33845;BME280;20145;43.118;25.694;2023-08-21T08:12:02;99725.63;;;30.55;41.93
33845;BME280;20145;43.118;25.694;2023-08-21T08:14:28;99721.53;;;30.51;42.49
33845;BME280;20145;43.118;25.694;2023-08-21T08:16:53;99721.53;;;30.41;42.13
33845;BME280;20145;43.118;25.694;2023-08-21T08:19:19;99710.88;;;30.41;42.02
33845;BME280;20145;43.118;25.694;2023-08-21T08:21:45;99711.28;;;30.27;41.42
33845;BME280;20145;43.118;25.694;2023-08-21T08:24:10;99719.72;;;30.32;41.85
33845;BME280;20145;43.118;25.694;2023-08-21T08:26:36;99710.59;;;30.44;42.58
33845;BME280;20145;43.118;25.694;2023-08-21T08:29:01;99710.75;;;30.53;41.16
33845;BME280;20145;43.118;25.694;2023-08-21T08:31:27;99710.22;;;30.68;40.65
33845;BME280;20145;43.118;25.694;2023-08-21T08:33:54;99709.22;;;30.79;41.10
33845;BME280;20145;43.118;25.694;2023-08-21T08:36:19;99714.00;;;30.95;40.83
33845;BME280;20145;43.118;25.694;2023-08-21T08:38:45;99705.00;;;31.06;40.59
33845;BME280;20145;43.118;25.694;2023-08-21T08:41:33;99706.81;;;31.25;41.16
33845;BME280;20145;43.118;25.694;2023-08-21T08:44:02;99703.00;;;31.37;40.16
33845;BME280;20145;43.118;25.694;2023-08-21T08:46:29;99708.59;;;31.34;40.19
33845;BME280;20145;43.118;25.694;2023-08-21T08:48:56;99683.91;;;31.32;40.10
33845;BME280;20145;43.118;25.694;2023-08-21T08:51:28;99693.75;;;31.41;39.55
33845;BME280;20145;43.118;25.694;2023-08-21T08:53:57;99681.06;;;31.53;39.26
33845;BME280;20145;43.118;25.694;2023-08-21T08:56:23;99688.56;;;31.67;40.02
33845;BME280;20145;43.118;25.694;2023-08-21T08:58:49;99688.09;;;31.82;38.98
33845;BME280;20145;43.118;25.694;2023-08-21T09:01:14;99685.28;;;31.93;39.45
33845;BME280;20145;43.118;25.694;2023-08-21T09:03:40;99680.75;;;31.93;39.37
33845;BME280;20145;43.118;25.694;2023-08-21T09:06:06;99682.84;;;31.99;38.82
33845;BME280;20145;43.118;25.694;2023-08-21T09:08:31;99688.03;;;32.01;38.52
33845;BME280;20145;43.118;25.694;2023-08-21T09:11:01;99686.03;;;32.03;39.03
33845;BME280;20145;43.118;25.694;2023-08-21T09:13:28;99683.44;;;31.93;38.13
33845;BME280;20145;43.118;25.694;2023-08-21T09:15:56;99670.31;;;32.00;38.92
33845;BME280;20145;43.118;25.694;2023-08-21T09:18:22;99674.91;;;32.08;37.62
33845;BME280;20145;43.118;25.694;2023-08-21T09:20:48;99675.00;;;32.16;37.91
33845;BME280;20145;43.118;25.694;2023-08-21T09:23:15;99670.88;;;32.21;38.29
33845;BME280;20145;43.118;25.694;2023-08-21T09:25:44;99668.75;;;32.25;37.21
33845;BME280;20145;43.118;25.694;2023-08-21T09:28:12;99657.97;;;32.17;37.99
33845;BME280;20145;43.118;25.694;2023-08-21T09:33:10;99662.03;;;32.21;37.33
33845;BME280;20145;43.118;25.694;2023-08-21T09:35:36;99655.88;;;32.20;37.47
33845;BME280;20145;43.118;25.694;2023-08-21T09:38:01;99660.28;;;32.30;37.75
33845;BME280;20145;43.118;25.694;2023-08-21T09:40:27;99657.22;;;32.42;37.92
33845;BME280;20145;43.118;25.694;2023-08-21T09:42:53;99650.63;;;32.47;36.97
33845;BME280;20145;43.118;25.694;2023-08-21T09:45:21;99650.69;;;32.55;37.35
33845;BME280;20145;43.118;25.694;2023-08-21T09:47:47;99642.75;;;32.63;37.13
33845;BME280;20145;43.118;25.694;2023-08-21T09:50:13;99644.41;;;32.64;37.58
33845;BME280;20145;43.118;25.694;2023-08-21T09:52:39;99653.03;;;32.76;36.51
33845;BME280;20145;43.118;25.694;2023-08-21T09:55:05;99641.66;;;32.74;36.05
33845;BME280;20145;43.118;25.694;2023-08-21T09:57:31;99647.53;;;32.77;35.74
33845;BME280;20145;43.118;25.694;2023-08-21T09:59:58;99648.59;;;32.84;34.96
33845;BME280;20145;43.118;25.694;2023-08-21T10:02:25;99643.78;;;32.88;36.20
33845;BME280;20145;43.118;25.694;2023-08-21T10:04:52;99642.69;;;32.99;35.50
33845;BME280;20145;43.118;25.694;2023-08-21T10:07:21;99637.56;;;33.05;36.21
33845;BME280;20145;43.118;25.694;2023-08-21T10:09:48;99633.97;;;33.15;36.77
33845;BME280;20145;43.118;25.694;2023-08-21T10:12:14;99637.94;;;33.10;35.62
33845;BME280;20145;43.118;25.694;2023-08-21T10:14:42;99627.09;;;32.94;36.29
33845;BME280;20145;43.118;25.694;2023-08-21T10:17:07;99634.16;;;32.95;35.84
33845;BME280;20145;43.118;25.694;2023-08-21T10:19:35;99628.63;;;32.97;35.08
33845;BME280;20145;43.118;25.694;2023-08-21T10:22:01;99624.38;;;33.04;36.15
33845;BME280;20145;43.118;25.694;2023-08-21T10:24:37;99626.09;;;33.13;35.58
33845;BME280;20145;43.118;25.694;2023-08-21T10:27:06;99628.38;;;33.08;34.58
33845;BME280;20145;43.118;25.694;2023-08-21T10:29:32;99612.56;;;32.97;35.00
33845;BME280;20145;43.118;25.694;2023-08-21T10:32:04;99607.69;;;33.10;35.99
33845;BME280;20145;43.118;25.694;2023-08-21T10:34:37;99598.19;;;33.16;35.10
33845;BME280;20145;43.118;25.694;2023-08-21T10:37:10;99600.09;;;33.31;34.83
33845;BME280;20145;43.118;25.694;2023-08-21T10:39:39;99602.00;;;33.47;35.33
33845;BME280;20145;43.118;25.694;2023-08-21T10:42:11;99599.91;;;33.59;35.47
33845;BME280;20145;43.118;25.694;2023-08-21T10:47:38;99597.44;;;33.74;34.38
33845;BME280;20145;43.118;25.694;2023-08-21T10:50:05;99594.09;;;33.72;34.21
33845;BME280;20145;43.118;25.694;2023-08-21T10:52:35;99594.59;;;33.84;34.70
33845;BME280;20145;43.118;25.694;2023-08-21T10:55:02;99589.44;;;33.90;34.84
33845;BME280;20145;43.118;25.694;2023-08-21T10:57:32;99587.28;;;34.02;34.70
33845;BME280;20145;43.118;25.694;2023-08-21T11:00:04;99593.03;;;34.07;33.83
33845;BME280;20145;43.118;25.694;2023-08-21T11:02:31;99589.31;;;34.08;33.70
33845;BME280;20145;43.118;25.694;2023-08-21T11:05:00;99587.19;;;34.12;34.71
33845;BME280;20145;43.118;25.694;2023-08-21T11:07:26;99577.63;;;34.09;34.15
33845;BME280;20145;43.118;25.694;2023-08-21T11:09:52;99583.34;;;34.14;34.08
33845;BME280;20145;43.118;25.694;2023-08-21T11:12:20;99569.41;;;34.11;34.01
33845;BME280;20145;43.118;25.694;2023-08-21T11:14:46;99575.78;;;34.10;33.53
33845;BME280;20145;43.118;25.694;2023-08-21T11:17:12;99580.97;;;34.19;33.70
33845;BME280;20145;43.118;25.694;2023-08-21T11:19:39;99573.47;;;34.23;32.74
33845;BME280;20145;43.118;25.694;2023-08-21T11:22:05;99570.25;;;34.28;33.78
33845;BME280;20145;43.118;25.694;2023-08-21T11:27:05;99566.41;;;34.38;33.50
33845;BME280;20145;43.118;25.694;2023-08-21T11:29:36;99561.38;;;34.35;32.79
33845;BME280;20145;43.118;25.694;2023-08-21T11:32:03;99550.31;;;34.30;33.68
33845;BME280;20145;43.118;25.694;2023-08-21T11:34:29;99558.22;;;34.40;33.73
33845;BME280;20145;43.118;25.694;2023-08-21T11:36:54;99551.13;;;34.55;32.33
33845;BME280;20145;43.118;25.694;2023-08-21T11:39:20;99549.97;;;34.41;34.26
33845;BME280;20145;43.118;25.694;2023-08-21T11:41:57;99544.97;;;34.47;33.09
33845;BME280;20145;43.118;25.694;2023-08-21T11:44:23;99535.75;;;34.57;33.02
33845;BME280;20145;43.118;25.694;2023-08-21T11:46:52;99535.75;;;34.74;33.40
33845;BME280;20145;43.118;25.694;2023-08-21T11:49:21;99531.16;;;34.91;32.73
33845;BME280;20145;43.118;25.694;2023-08-21T11:51:48;99527.78;;;34.97;32.42
33845;BME280;20145;43.118;25.694;2023-08-21T11:54:14;99526.94;;;35.13;32.95
33845;BME280;20145;43.118;25.694;2023-08-21T11:56:40;99526.53;;;35.24;33.48
33845;BME280;20145;43.118;25.694;2023-08-21T11:59:08;99524.78;;;35.39;31.96
33845;BME280;20145;43.118;25.694;2023-08-21T12:01:33;99528.53;;;35.61;32.67
33845;BME280;20145;43.118;25.694;2023-08-21T12:03:59;99521.34;;;35.85;31.11
33845;BME280;20145;43.118;25.694;2023-08-21T12:06:25;99527.56;;;35.54;30.60
33845;BME280;20145;43.118;25.694;2023-08-21T12:08:52;99518.97;;;35.90;29.94
33845;BME280;20145;43.118;25.694;2023-08-21T12:11:18;99524.34;;;36.13;30.27
33845;BME280;20145;43.118;25.694;2023-08-21T12:13:44;99516.41;;;36.20;29.58
33845;BME280;20145;43.118;25.694;2023-08-21T12:16:10;99509.13;;;36.05;29.84
33845;BME280;20145;43.118;25.694;2023-08-21T12:18:35;99501.34;;;35.87;30.61
33845;BME280;20145;43.118;25.694;2023-08-21T12:21:01;99500.88;;;35.84;30.00
33845;BME280;20145;43.118;25.694;2023-08-21T12:23:26;99512.13;;;36.02;30.19
33845;BME280;20145;43.118;25.694;2023-08-21T12:25:52;99520.09;;;35.95;29.65
33845;BME280;20145;43.118;25.694;2023-08-21T12:28:18;99513.41;;;35.68;29.85
33845;BME280;20145;43.118;25.694;2023-08-21T12:30:43;99517.75;;;35.69;29.52
33845;BME280;20145;43.118;25.694;2023-08-21T12:33:09;99515.31;;;35.60;29.88
33845;BME280;20145;43.118;25.694;2023-08-21T12:35:35;99527.28;;;35.10;32.75
33845;BME280;20145;43.118;25.694;2023-08-21T12:38:00;99518.84;;;34.16;35.27
33845;BME280;20145;43.118;25.694;2023-08-21T12:40:31;99528.69;;;33.83;36.12
33845;BME280;20145;43.118;25.694;2023-08-21T12:42:57;99525.06;;;33.49;37.02
33845;BME280;20145;43.118;25.694;2023-08-21T12:45:22;99522.69;;;33.30;37.58
33845;BME280;20145;43.118;25.694;2023-08-21T12:47:48;99531.09;;;33.09;37.23
33845;BME280;20145;43.118;25.694;2023-08-21T12:50:14;99513.75;;;33.13;37.91
33845;BME280;20145;43.118;25.694;2023-08-21T12:52:39;99504.59;;;33.24;36.42
33845;BME280;20145;43.118;25.694;2023-08-21T12:55:07;99510.66;;;33.42;36.03
33845;BME280;20145;43.118;25.694;2023-08-21T12:57:32;99495.63;;;33.41;37.36